Cooper Landing, Alaska
Current Conditions -  °F | °C
As of 12:03 AM on Saturday 29 Nov 2014 (Local Time) from PAWD Reporting Station
Light Rain Light Rain  
Wind Chill: 29°   Ceiling: 1600
Heat Index: 34°   Visibility: 10mi
Dew Point: 31°   Wind: 6mph
Humidity: 89%   Direction: 350°N
Pressure: 30.12"   Gusts: NA
Location:  60.47°N, 149.85°W
Report Text: PAWD 290903Z AUTO 35005KT 10SM -RA BKN016 OVC035 01/M01 A3012 RMK AO2 P0000 T00111006 TSNO
Loading
Personal Weather Stations






























Interactive Weather Map New forecast layout! Learn more

10-Day Weather Forecast

Advertisements
Track Severe Weather on mobile